createdAt,value
2019-05-21T00:02:24.318Z,17.03
2019-05-21T00:04:55.515Z,17.04
2019-05-21T00:07:28.442Z,17.06
2019-05-21T00:10:00.030Z,17.06
2019-05-21T00:12:32.634Z,17.03
2019-05-21T00:15:05.603Z,17.03
2019-05-21T00:17:36.667Z,17.03
2019-05-21T00:20:08.927Z,17.07
2019-05-21T00:22:40.023Z,17.06
2019-05-21T00:25:11.364Z,17.03
2019-05-21T00:27:42.404Z,17.05
2019-05-21T00:30:50.635Z,17.01
2019-05-21T00:33:58.423Z,16.96
2019-05-21T00:37:07.493Z,16.95
2019-05-21T00:40:14.272Z,16.96
2019-05-21T00:42:46.371Z,16.91
2019-05-21T00:45:17.431Z,16.92
2019-05-21T00:47:48.475Z,16.97
2019-05-21T00:50:21.105Z,16.96
2019-05-21T00:52:54.723Z,16.96
2019-05-21T00:55:25.802Z,16.94
2019-05-21T00:57:56.862Z,16.96
2019-05-21T01:00:27.959Z,16.94
2019-05-21T01:02:59.013Z,16.92
2019-05-21T01:05:30.023Z,16.85
2019-05-21T01:08:01.988Z,16.86
2019-05-21T01:10:33.027Z,16.84
2019-05-21T01:13:04.117Z,16.87
2019-05-21T01:15:35.209Z,16.90
2019-05-21T01:18:07.937Z,16.88
2019-05-21T01:20:39.121Z,16.88
2019-05-21T01:23:14.985Z,16.90
2019-05-21T01:25:46.119Z,16.89
2019-05-21T01:28:17.197Z,16.90
2019-05-21T01:30:48.213Z,16.89
2019-05-21T01:33:19.282Z,16.85
2019-05-21T01:35:51.927Z,16.85
2019-05-21T01:38:26.356Z,16.82
2019-05-21T01:40:59.747Z,16.84
2019-05-21T01:43:30.832Z,16.80
2019-05-21T01:46:01.847Z,16.77
2019-05-21T01:48:34.337Z,16.74
2019-05-21T01:51:06.905Z,16.71
2019-05-21T01:53:37.971Z,16.70
2019-05-21T01:56:08.995Z,16.72
2019-05-21T01:58:43.092Z,16.75
2019-05-21T02:01:14.136Z,16.78
2019-05-21T02:04:03.026Z,16.80
2019-05-21T02:06:37.327Z,16.82
2019-05-21T02:09:10.885Z,16.82
2019-05-21T02:11:43.871Z,16.83
2019-05-21T02:14:14.940Z,16.84
2019-05-21T02:16:48.254Z,16.85
2019-05-21T02:19:21.122Z,16.86
2019-05-21T02:21:53.720Z,16.87
2019-05-21T02:24:25.612Z,16.88
2019-05-21T02:26:59.810Z,16.82
2019-05-21T02:29:30.927Z,16.79
2019-05-21T02:32:03.485Z,16.80
2019-05-21T02:34:35.513Z,16.81
2019-05-21T02:37:07.415Z,16.84
2019-05-21T02:39:39.366Z,16.85
2019-05-21T02:42:12.011Z,16.86
2019-05-21T02:44:43.075Z,16.90
2019-05-21T02:47:14.112Z,16.94
2019-05-21T02:49:45.217Z,17.01
2019-05-21T02:52:16.320Z,17.07
2019-05-21T02:54:47.434Z,17.09
2019-05-21T02:57:18.481Z,17.03
2019-05-21T02:59:51.111Z,17.01
2019-05-21T03:02:31.365Z,16.82
2019-05-21T03:05:04.807Z,16.76
2019-05-21T03:07:35.936Z,16.81
2019-05-21T03:10:08.873Z,16.83
2019-05-21T03:12:39.899Z,16.76
2019-05-21T03:15:10.962Z,16.65
2019-05-21T03:17:42.021Z,16.64
2019-05-21T03:20:13.479Z,16.66
2019-05-21T03:22:44.535Z,16.69
2019-05-21T03:25:16.520Z,16.80
2019-05-21T03:27:47.617Z,16.78
2019-05-21T03:30:21.932Z,16.77
2019-05-21T03:32:53.218Z,16.64
2019-05-21T03:35:24.263Z,16.58
2019-05-21T03:37:58.391Z,16.49
2019-05-21T03:40:31.793Z,16.57
2019-05-21T03:43:02.861Z,16.53
2019-05-21T03:45:34.064Z,16.54
2019-05-21T03:48:05.126Z,16.47
2019-05-21T03:50:36.170Z,16.61
2019-05-21T03:53:07.203Z,16.55
2019-05-21T03:55:40.154Z,16.53
2019-05-21T03:58:11.195Z,16.51
2019-05-21T04:00:42.221Z,16.52
2019-05-21T04:03:14.837Z,16.58
2019-05-21T04:05:45.889Z,16.65
2019-05-21T04:08:16.979Z,16.67
2019-05-21T04:10:49.016Z,16.67
2019-05-21T04:13:20.045Z,16.55
2019-05-21T04:15:55.679Z,16.58
2019-05-21T04:18:31.055Z,16.60
2019-05-21T04:21:02.123Z,16.72
2019-05-21T04:23:33.176Z,16.83
2019-05-21T04:26:08.229Z,16.88
2019-05-21T04:28:39.276Z,17.04
2019-05-21T04:31:10.354Z,17.23
2019-05-21T04:33:41.373Z,17.42
2019-05-21T04:36:14.138Z,17.57
2019-05-21T04:38:45.967Z,17.60
2019-05-21T04:41:17.081Z,17.64
2019-05-21T04:43:48.120Z,17.70
2019-05-21T04:46:19.219Z,17.73
2019-05-21T04:48:51.817Z,17.89
2019-05-21T04:51:22.866Z,18.07
2019-05-21T04:53:53.935Z,18.23
2019-05-21T04:56:25.912Z,18.33
2019-05-21T04:58:56.927Z,18.21
2019-05-21T05:01:27.997Z,18.19
2019-05-21T05:03:59.041Z,18.20
2019-05-21T05:06:30.124Z,18.51
2019-05-21T05:09:01.163Z,18.77
2019-05-21T05:11:33.081Z,19.22
2019-05-21T05:14:04.249Z,19.52
2019-05-21T05:16:36.739Z,19.75
2019-05-21T05:19:08.153Z,20.03
2019-05-21T05:21:39.254Z,20.61
2019-05-21T05:24:13.389Z,21.35
2019-05-21T05:26:45.270Z,22.05
2019-05-21T05:29:16.382Z,22.43
2019-05-21T05:31:47.425Z,22.85
2019-05-21T05:34:18.475Z,23.35
2019-05-21T05:36:51.172Z,23.85
2019-05-21T05:39:23.116Z,24.33
2019-05-21T05:41:54.161Z,24.44
2019-05-21T05:44:25.248Z,24.80
2019-05-21T05:46:57.126Z,24.92
2019-05-21T05:49:32.720Z,24.85
2019-05-21T05:52:03.777Z,24.63
2019-05-21T05:54:34.854Z,24.55
2019-05-21T05:57:07.489Z,24.77
2019-05-21T05:59:38.551Z,25.09
2019-05-21T06:02:09.624Z,25.25
2019-05-21T06:04:40.652Z,25.40
2019-05-21T06:07:12.532Z,25.80
2019-05-21T06:09:43.572Z,25.88
2019-05-21T06:12:15.490Z,25.69
2019-05-21T06:14:46.580Z,25.06
2019-05-21T06:17:17.931Z,24.23
2019-05-21T06:19:49.043Z,23.84
2019-05-21T06:22:20.203Z,23.37
2019-05-21T06:24:51.307Z,23.14
2019-05-21T06:27:23.204Z,22.95
2019-05-21T06:29:54.323Z,22.67
2019-05-21T06:32:25.452Z,22.49
2019-05-21T06:34:56.462Z,22.34
2019-05-21T06:37:28.201Z,22.25
2019-05-21T06:40:00.135Z,22.17
2019-05-21T06:42:31.309Z,21.88
2019-05-21T06:45:02.746Z,21.73
2019-05-21T06:47:34.276Z,21.59
2019-05-21T06:50:06.901Z,21.43
2019-05-21T06:52:38.117Z,21.32
2019-05-21T06:55:11.387Z,21.31
2019-05-21T06:57:43.370Z,21.28
2019-05-21T07:00:14.794Z,21.15
2019-05-21T07:02:45.898Z,20.88
2019-05-21T07:05:20.218Z,20.49
2019-05-21T07:07:54.087Z,20.58
2019-05-21T07:10:25.138Z,20.45
2019-05-21T07:12:57.178Z,20.39
2019-05-21T07:15:28.202Z,20.42
2019-05-21T07:17:59.336Z,20.47
2019-05-21T07:20:30.373Z,20.82
2019-05-21T07:23:04.567Z,20.89
2019-05-21T07:25:35.808Z,20.88
2019-05-21T07:28:06.972Z,20.94
2019-05-21T07:30:38.055Z,21.05
2019-05-21T07:33:09.253Z,21.27
2019-05-21T07:35:40.308Z,21.05
2019-05-21T07:38:12.850Z,21.33
2019-05-21T07:40:44.722Z,21.44
2019-05-21T07:43:15.820Z,21.47
2019-05-21T07:45:46.860Z,21.60
2019-05-21T07:48:17.939Z,21.99
2019-05-21T07:50:48.982Z,22.40
2019-05-21T07:53:20.187Z,22.57
2019-05-21T07:55:52.828Z,22.70
2019-05-21T07:58:26.161Z,23.15
2019-05-21T08:01:00.939Z,23.19
2019-05-21T08:03:29.994Z,23.21
2019-05-21T08:06:01.092Z,23.48
2019-05-21T08:08:33.682Z,23.95
2019-05-21T08:11:04.775Z,24.23
2019-05-21T08:13:36.676Z,24.62
2019-05-21T08:16:09.217Z,24.83
2019-05-21T08:18:40.286Z,25.06
2019-05-21T08:21:11.331Z,25.12
2019-05-21T08:23:42.392Z,24.81
2019-05-21T08:26:13.431Z,25.01
2019-05-21T08:28:46.085Z,25.10
2019-05-21T08:31:17.171Z,25.21
2019-05-21T08:33:48.272Z,25.18
2019-05-21T08:36:20.758Z,25.11
2019-05-21T08:38:52.004Z,25.00
2019-05-21T08:41:26.162Z,24.99
2019-05-21T08:43:57.491Z,25.10
2019-05-21T08:46:28.540Z,25.31
2019-05-21T08:49:00.504Z,25.43
2019-05-21T08:51:31.563Z,25.27
2019-05-21T08:54:02.663Z,24.99
2019-05-21T08:56:33.713Z,24.76
2019-05-21T08:59:04.785Z,24.44
2019-05-21T09:01:35.932Z,24.67
2019-05-21T09:04:06.999Z,24.90
2019-05-21T09:06:39.560Z,23.94
2019-05-21T09:09:10.659Z,23.78
2019-05-21T09:11:41.742Z,24.08
2019-05-21T09:14:15.270Z,24.32
2019-05-21T09:16:46.309Z,24.07
2019-05-21T09:19:17.387Z,23.93
2019-05-21T09:21:48.494Z,23.83
2019-05-21T09:24:21.056Z,24.24
2019-05-21T09:26:52.068Z,23.73
2019-05-21T09:29:24.048Z,23.73
2019-05-21T09:31:55.143Z,23.58
2019-05-21T09:34:26.272Z,23.00
2019-05-21T09:36:58.741Z,23.13
2019-05-21T09:39:32.795Z,22.97
2019-05-21T09:42:03.837Z,23.21
2019-05-21T09:44:37.590Z,23.02
2019-05-21T09:47:08.639Z,22.98
2019-05-21T09:49:39.736Z,22.85
2019-05-21T09:52:12.347Z,22.84
2019-05-21T09:54:43.409Z,22.70
2019-05-21T09:57:16.009Z,22.33
2019-05-21T09:59:49.548Z,22.10
2019-05-21T10:02:22.165Z,21.94
2019-05-21T10:04:53.240Z,22.06
2019-05-21T10:07:39.053Z,22.23
2019-05-21T10:09:57.073Z,22.21
2019-05-21T10:12:28.142Z,22.27
2019-05-21T10:15:00.066Z,22.38
2019-05-21T10:17:34.282Z,22.27
2019-05-21T10:20:07.121Z,22.15
2019-05-21T10:22:38.247Z,22.16
2019-05-21T10:25:10.880Z,22.19
2019-05-21T10:27:41.996Z,22.16
2019-05-21T10:30:14.254Z,22.06
2019-05-21T10:32:45.331Z,21.84
2019-05-21T10:35:16.430Z,21.81
2019-05-21T10:37:54.930Z,21.67
2019-05-21T10:40:20.331Z,21.66
2019-05-21T10:42:51.361Z,21.43
2019-05-21T10:45:22.442Z,21.45
2019-05-21T10:47:53.501Z,21.53
2019-05-21T10:50:26.137Z,21.59
2019-05-21T10:52:57.275Z,21.52
2019-05-21T10:55:28.321Z,21.56
2019-05-21T10:57:59.469Z,21.59
2019-05-21T11:00:31.669Z,21.46
2019-05-21T11:03:13.375Z,21.35
2019-05-21T11:05:46.187Z,21.37
2019-05-21T11:08:25.405Z,21.39
2019-05-21T11:10:49.998Z,21.27
2019-05-21T11:13:21.035Z,21.22
2019-05-21T11:15:52.119Z,21.14
2019-05-21T11:18:23.155Z,21.19
2019-05-21T11:20:55.757Z,21.31
2019-05-21T11:23:26.787Z,21.52
2019-05-21T11:25:57.937Z,21.58
2019-05-21T11:30:11.354Z,21.72
2019-05-21T11:31:09.234Z,21.76
2019-05-21T11:33:41.867Z,21.88
2019-05-21T11:36:12.956Z,21.97
2019-05-21T11:38:43.986Z,22.10
2019-05-21T11:41:15.150Z,22.12
2019-05-21T11:43:47.124Z,22.27
2019-05-21T11:46:18.171Z,22.45
2019-05-21T11:48:50.643Z,22.51
2019-05-21T11:51:21.731Z,22.48
2019-05-21T11:53:53.114Z,22.48
2019-05-21T11:56:25.683Z,22.50
2019-05-21T11:58:56.753Z,22.52
2019-05-21T12:01:27.838Z,22.62
2019-05-21T12:04:00.466Z,22.55
2019-05-21T12:06:31.520Z,22.50
2019-05-21T12:09:02.588Z,22.45
2019-05-21T12:11:36.626Z,22.53
2019-05-21T12:14:07.759Z,22.41
2019-05-21T12:16:39.649Z,22.54
2019-05-21T12:19:12.299Z,22.43
2019-05-21T12:21:43.420Z,22.33
2019-05-21T12:24:16.144Z,22.23
2019-05-21T12:26:52.607Z,22.30
2019-05-21T12:29:27.715Z,22.31
2019-05-21T12:32:02.276Z,22.15
2019-05-21T12:34:38.938Z,22.18
2019-05-21T12:37:09.249Z,22.23
2019-05-21T12:39:41.919Z,22.08
2019-05-21T12:42:17.720Z,22.03
2019-05-21T12:44:45.842Z,22.03
2019-05-21T12:47:21.073Z,21.94
2019-05-21T12:49:55.303Z,22.09
2019-05-21T12:52:26.406Z,22.13
2019-05-21T12:54:57.553Z,22.13
2019-05-21T12:57:35.894Z,22.14
2019-05-21T13:00:03.194Z,22.16
2019-05-21T13:02:36.315Z,22.23
2019-05-21T13:05:11.203Z,22.34
2019-05-21T13:07:41.824Z,22.34
2019-05-21T13:10:22.405Z,22.61
2019-05-21T13:12:50.062Z,22.59
2019-05-21T13:15:21.216Z,22.64
2019-05-21T13:17:55.070Z,22.66
2019-05-21T13:20:27.764Z,22.70
2019-05-21T13:22:58.797Z,22.71
2019-05-21T13:25:29.858Z,22.67
2019-05-21T13:28:04.444Z,22.72
2019-05-21T13:30:36.764Z,22.72
2019-05-21T13:33:08.741Z,22.75
2019-05-21T13:35:39.870Z,22.73
2019-05-21T13:38:13.531Z,22.65
2019-05-21T13:40:43.862Z,22.61
2019-05-21T13:43:22.065Z,22.54
2019-05-21T13:45:56.602Z,22.53
2019-05-21T13:48:28.552Z,22.72
2019-05-21T13:50:59.716Z,22.78
2019-05-21T13:53:32.435Z,22.81
2019-05-21T13:56:04.746Z,22.78
2019-05-21T13:58:37.408Z,22.87
2019-05-21T14:01:09.432Z,22.77
2019-05-21T14:03:45.909Z,22.77
2019-05-21T14:06:20.369Z,22.74
2019-05-21T14:08:52.738Z,22.52
2019-05-21T14:11:23.875Z,22.46
2019-05-21T14:13:54.990Z,22.56
2019-05-21T14:16:26.057Z,22.61
2019-05-21T14:18:58.113Z,22.67
2019-05-21T14:21:30.391Z,22.66
2019-05-21T14:24:01.490Z,22.64
2019-05-21T14:26:32.600Z,22.56
2019-05-21T14:29:06.841Z,22.55
2019-05-21T14:31:40.888Z,22.70
2019-05-21T14:34:17.100Z,22.85
2019-05-21T14:36:49.739Z,22.87
2019-05-21T14:39:20.776Z,22.98
2019-05-21T14:41:51.838Z,22.89
2019-05-21T14:44:22.921Z,23.03
2019-05-21T14:46:54.804Z,23.10
2019-05-21T14:49:29.317Z,23.06
2019-05-21T14:52:00.318Z,23.12
2019-05-21T14:54:31.422Z,23.10
2019-05-21T14:57:04.038Z,22.97
2019-05-21T14:59:35.109Z,23.10
2019-05-21T15:02:07.560Z,23.10
2019-05-21T15:04:39.004Z,23.24
2019-05-21T15:07:10.337Z,23.38
2019-05-21T15:09:41.469Z,23.31
2019-05-21T15:12:14.711Z,23.46
2019-05-21T15:14:46.322Z,23.45
2019-05-21T15:17:17.478Z,23.44
2019-05-21T15:19:50.087Z,23.11
2019-05-21T15:22:22.383Z,23.09
2019-05-21T15:24:53.438Z,22.90
2019-05-21T15:27:29.456Z,22.72
2019-05-21T15:30:00.588Z,22.23
2019-05-21T15:32:31.675Z,22.27
2019-05-21T15:35:04.337Z,21.99
2019-05-21T15:37:37.960Z,21.79
2019-05-21T15:40:11.186Z,21.63
2019-05-21T15:42:42.314Z,21.63
2019-05-21T15:45:14.993Z,21.77
2019-05-21T15:47:47.796Z,21.87
2019-05-21T15:50:18.874Z,21.87
2019-05-21T15:52:53.095Z,21.90
2019-05-21T15:55:24.139Z,22.01
2019-05-21T15:57:55.232Z,21.96
2019-05-21T16:00:27.211Z,21.92
2019-05-21T16:02:58.390Z,22.03
2019-05-21T16:05:32.075Z,21.93
2019-05-21T16:08:04.811Z,21.91
2019-05-21T16:10:35.912Z,21.96
2019-05-21T16:13:07.964Z,21.96
2019-05-21T16:15:40.714Z,21.95
2019-05-21T16:18:11.857Z,22.07
2019-05-21T16:20:43.033Z,22.11
2019-05-21T16:23:16.489Z,22.21
2019-05-21T16:25:47.577Z,22.25
2019-05-21T16:28:18.672Z,22.20
2019-05-21T16:30:51.333Z,22.17
2019-05-21T16:33:22.426Z,22.19
2019-05-21T16:35:53.472Z,22.20
2019-05-21T16:38:25.349Z,22.24
2019-05-21T16:40:56.410Z,22.20
2019-05-21T16:43:27.454Z,22.11
2019-05-21T16:45:58.526Z,22.20
2019-05-21T16:48:33.448Z,22.15
2019-05-21T16:51:04.585Z,22.23
2019-05-21T16:53:36.680Z,22.09
2019-05-21T16:56:07.780Z,22.13
2019-05-21T16:58:40.518Z,22.05
2019-05-21T17:01:11.953Z,22.07
2019-05-21T17:03:43.083Z,21.78
2019-05-21T17:06:14.117Z,21.72
2019-05-21T17:08:45.345Z,21.66
2019-05-21T17:11:17.905Z,21.62
2019-05-21T17:13:48.984Z,21.36
2019-05-21T17:16:20.618Z,21.18
2019-05-21T17:18:51.753Z,21.08
2019-05-21T17:21:22.819Z,21.00
2019-05-21T17:23:54.824Z,21.05
2019-05-21T17:26:26.216Z,21.22
2019-05-21T17:28:57.281Z,21.28
2019-05-21T17:31:31.652Z,21.42
2019-05-21T17:34:02.766Z,21.35
2019-05-21T17:36:35.458Z,21.40
2019-05-21T17:39:08.387Z,21.43
2019-05-21T17:41:39.439Z,21.52
2019-05-21T17:44:12.109Z,21.41
2019-05-21T17:46:43.159Z,21.16
2019-05-21T17:49:17.636Z,21.12
2019-05-21T17:51:50.491Z,20.96
2019-05-21T17:54:26.613Z,20.90
2019-05-21T17:56:58.604Z,20.91
2019-05-21T17:59:29.754Z,20.78
2019-05-21T18:02:05.242Z,20.60
2019-05-21T18:04:39.807Z,20.43
2019-05-21T18:07:12.501Z,20.13
2019-05-21T18:09:45.232Z,19.82
2019-05-21T18:12:31.263Z,19.63
2019-05-21T18:14:55.922Z,19.67
2019-05-21T18:17:42.667Z,19.53
2019-05-21T18:20:26.333Z,19.57
2019-05-21T18:26:58.883Z,19.17
2019-05-21T18:33:09.203Z,19.20
2019-05-21T18:35:40.607Z,19.18
2019-05-21T18:38:16.694Z,19.16
2019-05-21T18:40:47.913Z,19.15
2019-05-21T18:43:19.384Z,19.07
2019-05-21T18:45:50.582Z,19.02
2019-05-21T18:49:01.331Z,19.11
2019-05-21T18:51:34.075Z,19.19
2019-05-21T18:58:21.707Z,19.31
2019-05-21T18:59:23.101Z,19.35
2019-05-21T19:01:54.595Z,19.36
2019-05-21T19:04:30.678Z,19.36
2019-05-21T19:07:05.408Z,19.30
2019-05-21T19:09:37.125Z,19.21
2019-05-21T19:12:10.005Z,18.93
2019-05-21T19:14:45.251Z,18.62
2019-05-21T19:17:17.225Z,18.44
2019-05-21T19:19:48.397Z,18.40
2019-05-21T19:22:21.335Z,18.29
2019-05-21T19:24:52.968Z,18.32
2019-05-21T19:27:25.082Z,18.32
2019-05-21T19:29:57.484Z,18.36
2019-05-21T19:32:32.153Z,18.37
2019-05-21T19:35:09.406Z,18.24
2019-05-21T19:37:40.810Z,18.08
2019-05-21T19:40:14.201Z,18.01
2019-05-21T19:42:54.448Z,17.97
2019-05-21T19:45:40.197Z,18.02
2019-05-21T19:48:07.787Z,17.96
2019-05-21T19:50:39.108Z,17.88
2019-05-21T19:53:10.369Z,17.76
2019-05-21T19:55:41.809Z,17.78
2019-05-21T19:58:17.300Z,17.76
2019-05-21T20:00:53.713Z,17.76
2019-05-21T20:03:26.691Z,17.70
2019-05-21T20:05:59.335Z,17.55
2019-05-21T20:08:30.666Z,17.59
2019-05-21T20:11:09.375Z,17.64
2019-05-21T20:13:45.596Z,17.72
2019-05-21T20:16:15.181Z,17.78
2019-05-21T20:18:46.371Z,17.83
2019-05-21T20:21:18.621Z,17.85
2019-05-21T20:23:51.307Z,17.88
2019-05-21T20:26:25.083Z,17.91
2019-05-21T20:28:56.669Z,17.95
2019-05-21T20:31:28.839Z,17.99
2019-05-21T20:34:01.273Z,18.01
2019-05-21T20:36:33.085Z,18.04
2019-05-21T20:39:06.771Z,18.06
2019-05-21T20:41:42.259Z,18.06
2019-05-21T20:44:15.233Z,18.01
2019-05-21T20:46:48.493Z,17.92
2019-05-21T20:49:19.626Z,17.86
2019-05-21T20:51:55.281Z,17.83
2019-05-21T20:54:31.521Z,17.77
2019-05-21T20:57:05.790Z,17.74
2019-05-21T20:59:44.087Z,17.60
2019-05-21T21:02:17.411Z,17.46
2019-05-21T21:04:51.899Z,17.30
2019-05-21T21:07:37.575Z,17.26
2019-05-21T21:10:19.817Z,17.23
2019-05-21T21:13:14.805Z,17.25
2019-05-21T21:15:55.914Z,17.23
2019-05-21T21:21:40.008Z,17.19
2019-05-21T21:24:30.584Z,17.22
2019-05-21T21:26:59.861Z,17.20
2019-05-21T21:30:02.373Z,17.23
2019-05-21T21:32:49.544Z,17.24
2019-05-21T21:35:22.044Z,17.16
2019-05-21T21:37:58.396Z,17.13
2019-05-21T21:40:49.015Z,17.03
2019-05-21T21:43:29.031Z,16.99
2019-05-21T21:46:02.453Z,16.96
2019-05-21T21:48:35.580Z,16.98
2019-05-21T21:51:14.159Z,17.02
2019-05-21T21:54:08.337Z,17.05
2019-05-21T21:56:48.437Z,17.08
2019-05-21T21:59:20.825Z,17.08
2019-05-21T22:01:54.875Z,17.08
2019-05-21T22:04:32.440Z,17.10
2019-05-21T22:07:07.611Z,17.11
2019-05-21T22:09:43.167Z,17.12
2019-05-21T22:12:18.658Z,17.11
2019-05-21T22:15:02.615Z,17.07
2019-05-21T22:17:45.521Z,17.07
2019-05-21T22:20:23.410Z,17.06
2019-05-21T22:23:03.196Z,17.06
2019-05-21T22:25:36.336Z,17.05
2019-05-21T22:28:14.638Z,17.06
2019-05-21T22:30:45.825Z,17.04
2019-05-21T22:33:18.357Z,17.02
2019-05-21T22:35:49.700Z,17.00
2019-05-21T22:38:20.990Z,16.97
2019-05-21T22:40:54.953Z,16.94
2019-05-21T22:43:31.092Z,16.92
2019-05-21T22:49:10.954Z,16.88
2019-05-21T22:51:42.473Z,16.85
2019-05-21T22:54:14.539Z,16.82
2019-05-21T22:56:50.973Z,16.80
2019-05-21T22:59:22.774Z,16.78
2019-05-21T23:01:55.669Z,16.74
2019-05-21T23:04:29.800Z,16.72
2019-05-21T23:07:06.047Z,16.69
2019-05-21T23:09:45.574Z,16.66
2019-05-21T23:12:18.781Z,16.64
2019-05-21T23:15:00.521Z,16.63
2019-05-21T23:17:58.217Z,16.61
2019-05-21T23:20:55.560Z,16.57
2019-05-21T23:23:20.782Z,16.50
2019-05-21T23:25:58.629Z,16.48
2019-05-21T23:28:49.658Z,16.47
2019-05-21T23:31:20.154Z,16.44
2019-05-21T23:34:17.723Z,16.42
2019-05-21T23:36:53.171Z,16.39
2019-05-21T23:39:35.043Z,16.39
2019-05-21T23:42:28.323Z,16.33
2019-05-21T23:45:01.697Z,16.28
2019-05-21T23:47:47.626Z,16.28
2019-05-21T23:50:26.943Z,16.27
2019-05-21T23:53:17.531Z,16.26
2019-05-21T23:55:44.882Z,16.23
2019-05-21T23:58:20.547Z,16.19
